Luray, Kansas
Current Conditions -  °F | °C
As of 1:53 AM on Thursday 29 Jan 2015 (Local Time) from KRSL Reporting Station
Clear Clear  
Wind Chill: 40°   Ceiling: Unl
Heat Index: 48°   Visibility: 10mi
Dew Point: 34°   Wind: 23mph
Humidity: 58%   Direction: 330°NNW
Pressure: 30.15"   Gusts: NA
Location:  39.11°N, 98.69°W
Report Text: KRSL 290753Z AUTO 33020KT 10SM CLR 09/01 A3015 RMK AO2 PK WND 32030/0705 SLP204 T00890011
Loading
Personal Weather Stations






























Interactive Weather Map New forecast layout! Learn more

10-Day Weather Forecast

Advertisements
Track Severe Weather on mobile